Create Custom Reports and Graphics: Custom Report

Kelseyville

Current Conditions

8/12/20 7:15 PM (-07:00)
Updated Every 15 Minutes
Temp 85.3 °F   3.9
RH 25 %   21
Dew Pt 45.4 °F   13.3
Wet Bulb 59.5 °F   6.5
Wind Dir WSW | 245 °
Wind Spd 4.6 mph   1.2
Wind Gust 9.6 mph
Solar Rad 138 W/m2   16
Leaf Wet 0.0 mins
BatVolt 13.0 V   0.0

Today & Yesterday

Kelseyville

8/12/20 7:15 PM (-07:00)
Updated Every 15 Minutes
Daily Max Temp 95.2 °F   4.2
Max Temp Time 1549
Daily Min Temp 50.1 °F   4.9
Min Temp Time 0611
Daily Max Wind 14.9 mph   2.0
Max Wind Time 1508
Max Wind Dir WSW | 250 °
Daily Rain 0.00 In
Daily ETo 0.230 in   0.001
Daily Leaf Wet Hrs 0.0 hrs
Max Temp Yest 91.0 °F
Min Temp Yest 55.0 °F
Max Wind Yest 16.9 mph
Rain Yest 0.00 In
ETo Yest 0.23 In
Leaf Wet Hrs Yest 0.0 Hours

Last 48 Hours

Kelseyville

Hourly Data | America/Los_Angeles
as of 8/12/20 7:22 PM PDT
Date & Time Temp (°F) RH (%) Dew Pt (°F) Wet Bulb (°F) Wind Dir (°) Wind Spd (mph) Wind Gust (mph) Wind Gst Dir (°) Solar Rad (W/m2) Leaf Wet (mins) Latest Rain (In) Daily Rain (In) Daily Min Temp (°F) Daily Max Temp (°F) Daily ETo (in) Daily Leaf Wet Hrs (hrs)
8/12/20 - 1900 88.3 25 48.5 61.4 WSW | 247 5.9 13.2 WSW | 240 252 0.0 0.00 0.00 50.1 95.2 0.230 0.0
8/12/20 - 1800 91.4 26 51.8 63.5 SW | 234 5.8 14.2 W | 266 440 0.0 0.00 0.00 50.1 95.2 0.219 0.0
8/12/20 - 1700 93.3 19 45.5 61.0 SW | 227 4.1 11.0 SSW | 193 618 0.0 0.00 0.00 50.1 95.2 0.202 0.0
8/12/20 - 1600 94.4 14 38.8 58.7 WSW | 258 5.5 14.9 WSW | 250 770 0.0 0.00 0.00 50.1 95.2 0.181 0.0
8/12/20 - 1500 93.7 17 42.7 59.9 NW | 306 5.0 12.9 W | 267 865 0.0 0.00 0.00 50.1 95.1 0.154 0.0
8/12/20 - 1400 90.5 20 43.0 59.7 NNE | 32 6.1 10.1 NE | 36 903 0.0 0.00 0.00 50.1 92.0 0.124 0.0
8/12/20 - 1300 85.8 33 53.0 63.3 NE | 37 5.6 9.2 NE | 36 886 0.0 0.00 0.00 50.1 88.5 0.093 0.0
8/12/20 - 1200 81.4 41 55.3 63.8 NNE | 17 4.5 8.6 NNE | 31 820 0.0 0.00 0.00 50.1 84.8 0.065 0.0
8/12/20 - 1100 77.6 47 55.7 63.4 NNE | 25 3.1 7.7 NNE | 21 693 0.0 0.00 0.00 50.1 80.0 0.041 0.0
8/12/20 - 1000 73.4 54 55.7 62.5 NNE | 25 1.5 4.6 ENE | 75 528 0.0 0.00 0.00 50.1 76.5 0.022 0.0
8/12/20 - 0900 67.2 59 52.5 58.8 WNW | 286 0.6 3.1 NNW | 337 340 0.0 0.00 0.00 50.1 71.4 0.009 0.0
8/12/20 - 0800 57.2 81 51.2 54.6 WSW | 239 0.3 2.6 WSW | 247 163 0.0 0.00 0.00 50.1 63.1 0.002 0.0
8/12/20 - 0700 51.0 93 49.1 50.6 WNW | 300 0.2 1.5 NW | 326 23 0.0 0.00 0.00 50.1 62.1 0.000 0.0
8/12/20 - 0600 52.0 90 49.3 51.3 SW | 220 0.9 2.8 SSW | 192 0 0.0 0.00 0.00 51.1 62.1 0.000 0.0
8/12/20 - 0500 53.3 91 50.6 52.7 SSW | 204 0.4 2.0 SSW | 207 0 0.0 0.00 0.00 52.4 62.1 0.000 0.0
8/12/20 - 0400 55.1 89 51.8 54.2 SSW | 208 0.5 1.5 SSW | 206 0 0.0 0.00 0.00 53.9 62.1 0.000 0.0
8/12/20 - 0300 57.2 87 53.4 56.0 SW | 226 0.5 2.2 SSE | 163 0 0.0 0.00 0.00 56.1 62.1 0.000 0.0
8/12/20 - 0200 60.2 79 53.6 57.3 SSW | 209 0.9 4.4 S | 190 0 0.0 0.00 0.00 58.0 62.1 0.000 0.0
8/12/20 - 0100 61.6 79 55.1 58.8 S | 187 1.2 3.7 S | 187 0 0.0 0.00 0.00 55.0 91.0 0.233 0.0
8/12/20 - 0000 64.7 73 55.8 60.3 SSE | 165 1.4 3.9 SSE | 153 0 0.0 0.00 0.00 55.0 91.0 0.233 0.0
8/11/20 - 2300 68.4 63 55.2 60.9 SSW | 196 2.1 6.1 SSW | 199 0 0.0 0.00 0.00 55.0 91.0 0.233 0.0
8/11/20 - 2200 70.9 60 56.2 62.2 SSW | 194 2.8 5.3 SSW | 198 0 0.0 0.00 0.00 55.0 91.0 0.233 0.0
8/11/20 - 2100 75.2 54 57.5 64.1 SSW | 205 3.0 7.5 SW | 218 2 0.0 0.00 0.00 55.0 91.0 0.233 0.0
8/11/20 - 2000 79.8 48 58.2 65.4 SW | 233 5.1 13.8 SW | 220 71 0.0 0.00 0.00 55.0 91.0 0.232 0.0
8/11/20 - 1900 84.2 42 58.9 66.6 SW | 235 6.5 15.1 SW | 233 239 0.0 0.00 0.00 55.0 91.0 0.229 0.0
8/11/20 - 1800 87.6 38 58.8 66.9 SW | 231 6.8 14.5 S | 187 430 0.0 0.00 0.00 55.0 91.0 0.219 0.0
8/11/20 - 1700 89.8 34 57.5 66.3 WSW | 240 7.1 15.6 WSW | 238 608 0.0 0.00 0.00 55.0 91.0 0.203 0.0
8/11/20 - 1600 90.1 32 56.4 65.7 SW | 234 7.3 16.9 WSW | 257 753 0.0 0.00 0.00 55.0 91.0 0.181 0.0
8/11/20 - 1500 89.8 27 50.9 62.8 SW | 217 7.8 15.6 SSW | 211 851 0.0 0.00 0.00 55.0 91.0 0.154 0.0
8/11/20 - 1400 89.2 24 47.9 61.3 SSW | 213 6.4 14.5 SSW | 205 893 0.0 0.00 0.00 55.0 90.3 0.124 0.0
8/11/20 - 1300 88.1 26 48.4 61.4 SW | 228 4.7 11.6 SW | 221 877 0.0 0.00 0.00 55.0 89.1 0.094 0.0
8/11/20 - 1200 85.1 32 51.8 62.5 WNW | 294 2.5 7.9 SSW | 212 795 0.0 0.00 0.00 55.0 88.3 0.066 0.0
8/11/20 - 1100 79.4 38 51.9 61.6 NNE | 32 4.7 7.5 NNE | 30 669 0.0 0.00 0.00 55.0 82.0 0.043 0.0
8/11/20 - 1000 76.3 40 50.4 60.1 NNE | 22 2.8 5.9 NNE | 17 509 0.0 0.00 0.00 55.0 78.6 0.023 0.0
8/11/20 - 0900 71.2 49 51.0 59.1 SE | 136 0.6 3.1 S | 191 319 0.0 0.00 0.00 55.0 75.1 0.009 0.0
8/11/20 - 0800 61.2 64 48.9 54.7 S | 179 1.0 3.3 SSW | 193 128 0.0 0.00 0.00 55.0 66.2 0.002 0.0
8/11/20 - 0700 55.7 79 49.4 53.0 SW | 232 0.7 2.4 SW | 219 15 0.0 0.00 0.00 55.0 65.6 0.000 0.0
8/11/20 - 0600 56.9 73 48.3 52.8 SSW | 204 0.7 2.8 S | 169 0 0.0 0.00 0.00 56.1 65.6 0.000 0.0
8/11/20 - 0500 58.0 76 50.6 54.6 S | 184 0.5 2.2 S | 169 0 0.0 0.00 0.00 57.0 65.6 0.000 0.0
8/11/20 - 0400 60.4 69 50.2 55.3 S | 185 0.6 2.8 S | 186 0 0.0 0.00 0.00 58.5 65.6 0.000 0.0
8/11/20 - 0300 61.4 71 51.7 56.6 S | 172 0.8 2.8 SSE | 153 0 0.0 0.00 0.00 60.5 65.6 0.000 0.0
8/11/20 - 0200 64.0 63 51.1 57.0 S | 175 1.1 3.7 S | 186 0 0.0 0.00 0.00 62.4 65.6 0.000 0.0
8/11/20 - 0100 67.7 55 51.2 58.2 S | 174 1.9 4.2 S | 174 0 0.0 0.00 0.00 58.2 98.7 0.235 0.0
8/11/20 - 0000 69.7 52 51.5 59.0 S | 174 2.2 4.8 SSE | 164 0 0.0 0.00 0.00 58.2 98.7 0.235 0.0
8/10/20 - 2300 71.4 51 52.4 60.0 S | 174 2.1 4.4 S | 187 0 0.0 0.00 0.00 58.2 98.7 0.235 0.0
8/10/20 - 2200 73.3 51 54.0 61.4 S | 185 1.4 4.2 SSW | 193 0 0.0 0.00 0.00 58.2 98.7 0.235 0.0
8/10/20 - 2100 79.8 39 52.3 61.8 SW | 227 3.6 9.0 WSW | 243 2 0.0 0.00 0.00 58.2 98.7 0.235 0.0
8/10/20 - 2000 85.0 33 52.3 62.8 SW | 228 4.7 12.1 SSW | 192 73 0.0 0.00 0.00 58.2 98.7 0.233 0.0
8/10/20 - 1900 89.7 30 53.8 64.2 SW | 228 6.2 14.2 SW | 233 236 0.0 0.00 0.00 58.2 98.7 0.229 0.0
Max 94.4 93 58.9 66.9 - 7.8 16.9 - 903 0.0 0.00 0.00 62.4 98.7 0.235 0.0
Avg 74.1 52 51.9 59.8 - 3.1 7.5 - 302 0.0 0.00 - - - - -
Min 51.0 14 38.8 50.6 - 0.2 1.5 - 0 0.0 0.00 0.00 50.1 62.1 0.000 0.0
Total - - - - - - - - - - 0.00 - - - - -

Last 30 Days

Kelseyville

Daily Data | America/Los_Angeles
as of 8/12/20 7:22 PM PDT
Date Daily Max Temp (°F) Max Temp Time Daily Min Temp (°F) Min Temp Time Daily Rain (In) Monthly Rain (In) Seasonal Rainfall (In) Wind Spd (mph) Daily Max Wind (mph) Max Wind Time Max Wind Dir (°) Daily ETo (in) 7 Day ETo (in) Daily Solar Rad (Cal/cm2) Dew Pt (°F) Max RH (%) Min RH (%) Daily Leaf Wet Hrs (hrs) Hrs 70-85F (hrs) Hrs > 95F (hrs) Powdery Mildew Stress (pts) GDDs (DL) GDDs (Mx/Mn) Seas GDDs (DL) Seasonal GDDs (Mx/Mn) Hrs <= 32F (hrs) Hrs <= 28F (hrs) Chilling <=45F (hrs) Chill Hrs 32-45F (hrs) Utah Chilling (Units) Chilling <=45F Seas (hrs) Chill Hrs 32-45 Seas (hrs) Utah Chilling Seas (Units) Degree Hrs (hrs) Bee Hrs Today (Hrs) Bat Volt Min Day (V)
8/11/20 91.0 1521 55.0 0626 0.00 0.00 0.00 3.3 16.9 1514 WSW | 257 0.233 1.52 616 53.0 86 19 0.0 3.97 0.00 0 23.7 23.0 2,159 2,123 0.0 0.0 0.0 0.0 -16.5 - - - 250.2 13.2 12.6
8/10/20 98.7 1505 58.2 0613 0.00 0.00 0.00 2.7 16.2 1644 W | 259 0.235 1.52 601 55.1 92 22 0.0 3.72 3.73 0 27.6 28.4 2,135 2,100 0.0 0.0 0.0 0.0 -17.5 - - - 328.3 13.2 12.6
8/9/20 100.1 1605 56.5 0613 0.00 0.00 0.00 2.6 15.1 1706 SW | 216 0.232 1.52 602 56.8 93 23 0.0 3.49 3.77 0 27.4 28.3 2,107 2,072 0.0 0.0 0.0 0.0 -17.5 - - - 336.0 13.2 12.6
8/8/20 97.1 1505 55.8 0618 0.00 0.00 0.00 2.8 15.3 1710 SW | 235 0.231 1.54 608 56.0 89 24 0.0 4.12 2.06 0 26.0 26.4 2,080 2,043 0.0 0.0 0.0 0.0 -17.5 - - - 303.3 13.3 12.5
8/7/20 92.9 1617 53.3 0602 0.00 0.00 0.00 3.4 15.3 1646 W | 263 0.182 1.54 593 55.2 75 27 0.0 3.16 0.00 0 22.8 23.1 2,054 2,017 0.0 0.0 0.0 0.0 -16.5 - - - 255.0 12.6 12.6
8/6/20 87.6 1506 53.4 0543 0.00 0.00 0.00 2.9 21.7 1416 W | 268 0.208 1.60 607 53.9 94 31 0.0 4.06 0.00 0 19.2 20.5 2,031 1,994 0.0 0.0 0.0 0.0 -14.5 0 0 0 171.4 12.6 12.6
8/5/20 85.9 1523 53.5 0605 0.00 0.00 0.00 2.8 14.0 1745 SSW | 209 0.198 1.64 612 55.1 95 36 1.8 4.84 0.00 0 17.7 19.7 2,012 1,974 0.0 0.0 0.0 0.0 -14.0 0 0 0 142.4 12.4 12.6
8/4/20 94.2 1455 52.6 0614 0.00 0.00 0.00 3.0 15.8 1915 WNW | 299 0.232 1.69 633 53.2 91 23 0.0 3.51 0.00 0 22.6 23.4 1,994 1,954 0.0 0.0 0.0 0.0 -16.5 0 0 0 244.7 12.8 12.6
8/3/20 94.4 1449 52.1 0606 0.00 0.00 0.00 3.0 17.3 1749 WNW | 293 0.237 1.71 653 49.6 83 20 0.0 3.23 0.00 0 23.3 23.2 1,972 1,931 0.0 0.0 0.0 0.0 -16.5 0 0 0 257.7 12.6 12.5
8/2/20 96.6 1421 50.8 0607 0.00 0.00 0.00 3.5 18.0 1843 WNW | 288 0.252 1.72 651 46.8 83 14 0.0 3.08 1.54 0 23.4 23.7 1,948 1,908 0.0 0.0 0.0 0.0 -15.0 0 0 0 274.6 12.6 12.6
8/1/20 95.9 1541 48.7 0617 0.00 0.00 0.00 2.3 14.7 1755 SW | 234 0.234 1.72 654 46.9 91 14 0.0 3.01 0.62 0 22.0 22.3 1,925 1,884 0.0 0.0 0.0 0.0 -13.0 0 0 0 265.2 12.4 12.5
7/31/20 93.4 1430 47.0 0552 0.00 0.00 0.00 2.7 16.4 1543 SW | 228 0.243 1.73 680 43.6 89 14 0.0 2.93 0.00 0 21.0 20.2 1,903 1,862 0.0 0.0 0.0 0.0 -12.0 0 0 0 247.3 12.3 12.6
7/30/20 95.2 1442 49.8 0608 0.00 0.00 0.00 2.8 14.5 1619 WSW | 254 0.244 1.73 680 45.9 89 9 0.0 3.06 0.03 0 22.9 22.5 1,882 1,841 0.0 0.0 0.0 0.0 -13.5 0 0 0 271.5 12.7 12.5
7/29/20 94.2 1410 50.2 0549 0.00 0.00 0.00 2.8 15.1 1651 SW | 217 0.248 1.72 679 48.1 92 13 0.0 2.84 0.00 0 23.4 22.2 1,859 1,819 0.0 0.0 0.0 0.0 -14.5 0 0 0 275.0 12.7 12.6
7/28/20 98.2 1420 53.2 0622 0.00 0.00 0.00 2.9 15.8 1710 SSW | 193 0.252 1.71 665 48.3 86 12 0.0 2.56 4.09 0 25.7 25.7 1,836 1,797 0.0 0.0 0.0 0.0 -17.0 0 0 0 312.0 12.9 12.6
7/27/20 96.9 1327 54.1 0613 0.00 0.00 0.00 3.2 16.2 1743 W | 270 0.252 1.70 652 50.0 91 16 0.0 3.48 3.32 0 26.4 25.5 1,810 1,771 0.0 0.0 0.0 0.0 -17.5 0 0 0 321.9 12.9 12.6
7/26/20 96.1 1351 53.4 0616 0.00 0.00 0.00 3.0 16.2 1606 SSW | 208 0.243 1.69 647 52.5 93 19 0.0 3.42 0.62 0 24.4 24.8 1,784 1,745 0.0 0.0 0.0 0.0 -17.0 0 0 0 284.3 12.9 12.6
7/25/20 96.7 1413 52.1 0546 0.00 0.00 0.00 3.1 17.3 1537 SSW | 200 0.249 1.71 662 52.9 88 19 0.0 3.07 0.49 0 23.7 24.4 1,759 1,721 0.0 0.0 0.0 0.0 -15.0 0 0 0 278.2 12.8 12.5
7/24/20 91.9 1323 53.8 0609 0.00 0.00 0.00 3.0 15.1 1423 SW | 225 0.238 1.71 664 51.5 86 24 0.0 3.68 0.00 0 23.1 22.8 1,736 1,696 0.0 0.0 0.0 0.0 -18.0 0 0 0 244.3 13.0 12.6
7/23/20 93.4 1328 52.6 0615 0.00 0.00 0.00 3.2 17.5 1544 WSW | 250 0.242 1.72 658 52.6 96 9 0.0 3.38 0.00 0 23.7 23.0 1,712 1,673 0.0 0.0 0.0 0.0 -18.0 0 0 0 260.2 13.1 12.6
7/22/20 90.8 1301 56.5 0608 0.00 0.00 0.00 3.2 17.1 1456 W | 275 0.234 1.72 656 56.3 88 18 0.0 4.92 0.00 0 23.6 23.6 1,689 1,651 0.0 0.0 0.0 0.0 -19.5 0 0 0 233.6 12.9 12.5
7/21/20 95.6 1324 57.0 0602 0.00 0.00 0.00 3.3 15.8 1623 SW | 233 0.242 1.74 650 55.1 83 25 0.0 3.88 0.12 0 25.7 26.3 1,665 1,627 0.0 0.0 0.0 0.0 -19.5 0 0 0 288.4 13.0 12.6
7/20/20 94.1 1319 54.5 0602 0.00 0.00 0.00 2.9 16.7 1443 SSW | 210 0.244 1.74 659 54.1 86 27 0.0 3.71 0.00 0 25.3 24.3 1,639 1,601 0.0 0.0 0.0 0.0 -17.5 0 0 0 290.7 13.0 12.6
7/19/20 96.7 1403 54.0 0605 0.00 0.00 0.00 3.2 16.9 1501 SW | 232 0.258 1.74 679 54.1 90 20 0.0 3.69 1.38 0 26.2 25.4 1,614 1,576 0.0 0.0 0.0 0.0 -18.0 0 0 0 312.4 13.1 12.6
7/18/20 96.0 1551 56.1 0603 0.00 0.00 0.00 3.0 14.9 1512 SW | 222 0.253 1.75 675 55.1 93 20 0.0 3.51 0.35 0 26.6 26.0 1,588 1,551 0.0 0.0 0.0 0.0 -19.0 0 0 0 312.4 13.2 12.5
7/17/20 94.6 1341 56.5 0525 0.00 0.00 0.00 2.9 14.7 1424 SW | 219 0.243 1.76 673 57.4 91 27 0.0 4.19 0.00 0 25.2 25.6 1,561 1,525 0.0 0.0 0.0 0.0 -19.0 0 0 0 279.8 13.1 12.6
7/16/20 94.6 1336 56.6 0546 0.00 0.00 0.00 2.9 14.9 1505 SW | 217 0.244 1.77 671 56.6 90 28 0.0 3.60 0.00 0 25.5 25.6 1,536 1,499 0.0 0.0 0.0 0.0 -18.5 0 0 0 282.7 13.1 12.6
7/15/20 99.3 1456 55.0 0547 0.00 0.00 0.00 2.9 15.1 1710 W | 263 0.251 1.79 674 55.2 92 18 0.0 3.91 3.17 0 26.7 27.1 1,511 1,474 0.0 0.0 0.0 0.0 -18.0 0 0 0 323.2 13.2 12.6
7/14/20 96.4 1524 57.1 0605 0.00 0.00 0.00 2.8 16.2 1755 SW | 216 0.248 1.78 674 55.8 91 20 0.0 3.78 1.16 0 26.4 26.7 1,484 1,447 0.0 0.0 0.0 0.0 -19.0 0 0 0 304.5 13.2 12.6
7/13/20 95.0 1616 54.1 0553 0.00 0.00 0.00 2.8 14.7 1704 WSW | 252 0.244 1.77 683 54.4 89 23 0.0 3.62 0.00 0 24.5 24.5 1,457 1,420 0.0 0.0 0.0 0.0 -17.5 0 0 0 275.2 13.2 12.6
Max 100.1 - 58.2 - 0.00 0.00 - 3.5 21.7 - - 0.258 - 683 57.4 96 36 1.8 4.92 4.09 0 27.6 28.4 - - 0.0 0.0 0.0 0.0 -12.0 - - - 336.0 13.3 12.6
Avg - - - - - 0.00 - 3.0 - - - - - - 52.7 - - - 3.58 0.88 - 24.2 24.3 - - 0.0 0.0 0.0 0.0 -16.8 - - - - 12.9 -
Min 85.9 - 47.0 - 0.00 0.00 - 2.3 14.0 - - 0.182 - 593 43.6 75 9 0.0 2.56 0.00 0 17.7 19.7 - - 0.0 0.0 0.0 0.0 -19.5 - - - 142.4 12.3 12.5
Total - - - - - - - - - - - - - - - - - - 107.44 26.47 - 725.7 728.4 - - 0.0 0.0 0.0 0.0 -503.0 - - - - 387.2 -

Climate Summary

Kelseyville

Current Year | Showing 1/1/20 - 8/11/20
as of 8/12/20 7:22 PM PDT
Temperature (°F) Precip (in) Days
Month Days Avg Max Avg Min Max Max Min Min Total Daily Min Temp < 28 Daily Min Temp < 32 Daily Max Temp > 90 Daily Max Temp > 100 Daily Rain > 0.01 Daily Rain > 0.1
Jan 2020 31 56.8 32.8 72.6 22.6 2.01 7 19 0 0 9 4
Feb 2020 29 68.7 29.5 83.1 22 0 9 23 0 0 0 0
Mar 2020 31 61.7 34 83.7 27.2 1.31 2 8 0 0 8 6
Apr 2020 30 72 40.9 86.9 28.3 0.76 0 3 0 0 6 3
May 2020 31 77.7 43.8 96.6 32.3 0.83 0 0 7 0 6 2
Jun 2020 30 86.8 50.1 103.8 36 0 0 0 14 3 0 0
Jul 2020 31 93.9 51.4 99.3 42.6 0 0 0 28 0 0 0
Aug 2020 11 94 53.6 100.1 48.7 0 0 0 9 1 0 0
Total 224 - - - - 4.91 18 53 58 4 29 15
Average 28 76.5 42 - - 0.61 2.2 6.6 7.2 0.5 3.6 1.9
Maximum 31 94 53.6 103.8 - 2.01 9 23 28 3 9 6
Minimum 11 56.8 29.5 - 22 0 0 0 0 0 0 0

Climate Summary

Kelseyville

Last Year | Showing 1/1/19 - 12/31/19
as of 8/12/20 7:22 PM PDT
Temperature (°F) Precip (in) Days
Month Days Avg Max Avg Min Max Max Min Min Total Daily Min Temp < 28 Daily Min Temp < 32 Daily Max Temp > 90 Daily Max Temp > 100 Daily Rain > 0.01 Daily Rain > 0.1
Jan 2019 31 59 36 75.5 22.7 9.56 6 11 0 0 12 12
Feb 2019 28 51.1 33.2 57.4 20.5 11.44 9 14 0 0 15 13
Mar 2019 31 60.3 36.2 76.5 27.3 3.27 2 7 0 0 12 10
Apr 2019 30 72.5 43.2 90.4 34.1 0.32 0 0 1 0 3 1
May 2019 31 74.4 43 86.7 32.5 2.01 0 0 0 0 6 5
Jun 2019 30 87.2 50.2 97.4 40 0.01 0 0 10 0 0 0
Jul 2019 31 88.7 52.2 98.7 46.5 0 0 0 13 0 0 0
Aug 2019 31 91.1 53.3 101.2 48.8 0 0 0 19 1 0 0
Sep 2019 30 82.8 46 97.3 35.1 0.09 0 0 7 0 2 0
Oct 2019 31 76.6 33.8 88.6 22.7 0.01 4 14 0 0 0 0
Nov 2019 30 70.6 31.9 85.1 21.3 0.96 7 16 0 0 3 3
Dec 2019 31 54.8 36.3 65.2 21.2 3.97 5 10 0 0 14 8
Total 365 - - - - 31.64 33 72 50 1 67 52
Average 30.4 72.4 41.3 - - 2.64 2.8 6 4.2 0.1 5.6 4.3
Maximum 31 91.1 53.3 101.2 - 11.44 9 16 19 1 15 13
Minimum 28 51.1 31.9 - 20.5 0 0 0 0 0 0 0
Calm: 4.1%
Calm: 0.0%